TAF LFLU
METAR LFLU
LFLU 071800Z AUTO 20012KT 9999 SCT078 OVC090 07/03 Q1008=
LFLU 071730Z AUTO 20015KT CAVOK 07/03 Q1008=
LFLU 071700Z AUTO 19014KT 9999 FEW074 OVC100 08/02 Q1008=
LFLU 071630Z AUTO 19017KT CAVOK 08/02 Q1008=
LFLU 071600Z AUTO 22013KT CAVOK 08/03 Q1009=
WC LFLU
WS LFLU
WV LFLU